createdAt,value
2019-01-20T00:01:59.342Z,17.10
2019-01-20T00:04:40.563Z,17.30
2019-01-20T00:07:22.217Z,16.17
2019-01-20T00:10:03.123Z,16.90
2019-01-20T00:12:43.847Z,17.43
2019-01-20T00:15:27.166Z,17.43
2019-01-20T00:18:09.381Z,18.80
2019-01-20T00:20:50.646Z,17.23
2019-01-20T00:23:32.799Z,16.13
2019-01-20T00:26:13.403Z,16.50
2019-01-20T00:28:55.426Z,16.77
2019-01-20T00:31:37.485Z,17.00
2019-01-20T00:34:18.409Z,17.60
2019-01-20T00:37:01.587Z,17.63
2019-01-20T00:39:43.071Z,16.07
2019-01-20T00:42:26.451Z,16.50
2019-01-20T00:45:06.744Z,16.53
2019-01-20T00:47:48.200Z,16.90
2019-01-20T00:50:29.584Z,18.47
2019-01-20T00:53:10.911Z,15.40
2019-01-20T00:55:52.639Z,16.90
2019-01-20T00:58:35.815Z,15.70
2019-01-20T01:01:04.827Z,15.97
2019-01-20T01:03:52.996Z,16.77
2019-01-20T01:06:55.129Z,17.00
2019-01-20T01:09:24.021Z,15.90
2019-01-20T01:12:06.739Z,16.63
2019-01-20T01:14:48.170Z,17.03
2019-01-20T01:17:30.077Z,16.07
2019-01-20T01:20:11.889Z,16.63
2019-01-20T01:22:53.367Z,16.30
2019-01-20T01:25:34.323Z,16.20
2019-01-20T01:28:17.833Z,16.20
2019-01-20T01:30:59.503Z,16.33
2019-01-20T01:33:41.583Z,16.77
2019-01-20T01:36:23.054Z,14.27
2019-01-20T01:39:05.455Z,14.77
2019-01-20T01:41:48.903Z,15.63
2019-01-20T01:44:18.113Z,18.40
2019-01-20T01:50:14.055Z,17.37
2019-01-20T01:52:55.759Z,19.30
2019-01-20T01:55:24.691Z,15.17
2019-01-20T01:58:12.879Z,16.23
2019-01-20T02:01:01.356Z,14.17
2019-01-20T02:03:42.045Z,15.07
2019-01-20T02:06:23.495Z,14.70
2019-01-20T02:09:04.834Z,15.47
2019-01-20T02:11:47.041Z,14.60
2019-01-20T02:14:27.923Z,15.23
2019-01-20T02:17:08.733Z,16.57
2019-01-20T02:25:44.343Z,15.57
2019-01-20T02:28:25.151Z,17.40
2019-01-20T02:31:06.665Z,15.57
2019-01-20T02:33:48.567Z,17.10
2019-01-20T02:36:31.737Z,17.27
2019-01-20T02:39:13.337Z,16.07
2019-01-20T02:41:56.884Z,17.33
2019-01-20T02:44:38.203Z,16.63
2019-01-20T02:47:19.949Z,16.23
2019-01-20T02:50:03.482Z,17.20
2019-01-20T02:52:44.106Z,19.57
2019-01-20T02:55:25.208Z,19.17
2019-01-20T02:58:06.592Z,16.80
2019-01-20T03:00:47.786Z,16.87
2019-01-20T03:03:30.192Z,18.33
2019-01-20T03:06:12.244Z,16.97
2019-01-20T03:08:53.113Z,16.57
2019-01-20T03:11:36.064Z,18.23
2019-01-20T03:14:45.133Z,16.17
2019-01-20T03:17:33.844Z,19.27
2019-01-20T03:20:17.182Z,17.83
2019-01-20T03:22:58.812Z,20.00
2019-01-20T03:25:43.412Z,18.33
2019-01-20T03:28:24.623Z,19.07
2019-01-20T03:31:05.815Z,19.17
2019-01-20T03:33:47.274Z,19.70
2019-01-20T03:36:28.914Z,20.00
2019-01-20T03:38:58.202Z,19.23
2019-01-20T03:52:18.081Z,18.10
2019-01-20T03:58:22.282Z,18.30
2019-01-20T04:01:03.541Z,17.27
2019-01-20T04:03:45.461Z,17.47
2019-01-20T04:06:29.811Z,18.53
2019-01-20T04:09:32.371Z,18.70
2019-01-20T04:18:48.659Z,18.23
2019-01-20T04:21:17.547Z,20.13
2019-01-20T04:24:06.073Z,18.93
2019-01-20T04:26:56.061Z,18.50
2019-01-20T04:29:24.990Z,18.83
2019-01-20T04:32:14.253Z,19.93
2019-01-20T04:35:03.186Z,17.67
2019-01-20T04:37:48.394Z,18.13
2019-01-20T04:43:51.573Z,19.60
2019-01-20T04:46:33.005Z,19.17
2019-01-20T04:49:13.890Z,19.83
2019-01-20T04:51:54.836Z,19.27
2019-01-20T04:54:35.497Z,18.47
2019-01-20T04:57:19.315Z,19.93
2019-01-20T05:00:00.196Z,20.27
2019-01-20T05:02:43.416Z,21.50
2019-01-20T05:05:24.391Z,20.87
2019-01-20T05:08:05.776Z,21.77
2019-01-20T05:10:46.999Z,21.67
2019-01-20T05:13:28.561Z,22.13
2019-01-20T05:15:57.578Z,23.70
2019-01-20T05:18:46.160Z,22.00
2019-01-20T05:21:28.418Z,21.83
2019-01-20T05:23:57.676Z,23.33
2019-01-20T05:26:45.866Z,22.10
2019-01-20T05:29:28.508Z,24.30
2019-01-20T05:32:09.285Z,23.13
2019-01-20T05:38:00.517Z,24.87
2019-01-20T05:41:00.771Z,24.50
2019-01-20T05:46:48.374Z,23.77
2019-01-20T05:49:30.115Z,22.07
2019-01-20T05:55:39.677Z,25.07
2019-01-20T06:11:17.557Z,23.90
2019-01-20T06:14:00.101Z,25.90
2019-01-20T06:16:41.253Z,24.60
2019-01-20T06:31:47.490Z,23.83
2019-01-20T06:34:29.623Z,24.97
2019-01-20T06:37:11.712Z,25.00
2019-01-20T06:39:52.789Z,24.47
2019-01-20T06:42:37.223Z,24.47
2019-01-20T06:45:19.284Z,23.20
2019-01-20T06:48:03.639Z,25.57
2019-01-20T06:53:30.555Z,23.90
2019-01-20T06:56:11.929Z,24.27
2019-01-20T06:58:53.432Z,20.83
2019-01-20T07:01:57.356Z,25.03
2019-01-20T07:16:44.641Z,22.10
2019-01-20T07:23:06.792Z,20.60
2019-01-20T07:25:48.401Z,23.77
2019-01-20T07:28:29.944Z,21.60
2019-01-20T07:31:11.433Z,21.00
2019-01-20T07:33:53.254Z,21.47
2019-01-20T07:39:22.415Z,21.53
2019-01-20T07:42:03.992Z,20.23
2019-01-20T07:47:50.043Z,20.87
2019-01-20T07:56:41.220Z,21.37
2019-01-20T07:59:21.754Z,21.57
2019-01-20T08:02:22.298Z,21.27
2019-01-20T08:08:23.978Z,20.70
2019-01-20T08:20:17.505Z,19.23
2019-01-20T08:22:59.338Z,20.63
2019-01-20T08:25:40.554Z,19.53
2019-01-20T08:28:21.490Z,21.53
2019-01-20T08:31:03.116Z,20.27
2019-01-20T08:33:45.791Z,21.37
2019-01-20T08:42:30.438Z,21.50
2019-01-20T08:45:12.262Z,21.77
2019-01-20T08:47:54.074Z,20.67
2019-01-20T08:50:36.046Z,22.10
2019-01-20T08:56:25.149Z,21.67
2019-01-20T08:59:07.573Z,21.10
2019-01-20T09:01:49.920Z,19.20
2019-01-20T09:04:30.834Z,20.87
2019-01-20T09:07:12.448Z,22.27
2019-01-20T09:09:53.382Z,21.60
2019-01-20T09:12:35.088Z,22.53
2019-01-20T09:15:35.978Z,22.27
2019-01-20T09:18:05.488Z,20.07
2019-01-20T09:20:46.856Z,21.37
2019-01-20T09:23:15.914Z,21.97
2019-01-20T09:25:44.887Z,21.43
2019-01-20T09:28:33.106Z,23.13
2019-01-20T09:31:41.179Z,22.87
2019-01-20T09:34:23.546Z,21.83
2019-01-20T09:37:04.167Z,23.90
2019-01-20T09:40:08.278Z,22.40
2019-01-20T09:49:07.633Z,21.10
2019-01-20T09:51:48.575Z,21.57
2019-01-20T09:54:30.436Z,22.07
2019-01-20T09:57:12.949Z,21.70
2019-01-20T09:59:55.640Z,22.97
2019-01-20T10:05:41.873Z,19.47
2019-01-20T10:08:23.655Z,21.57
2019-01-20T10:11:05.495Z,20.00
2019-01-20T10:13:54.641Z,21.17
2019-01-20T10:16:18.368Z,19.83
2019-01-20T10:19:06.881Z,20.50
2019-01-20T10:31:08.053Z,21.30
2019-01-20T10:33:51.197Z,21.23
2019-01-20T10:36:33.165Z,21.07
2019-01-20T10:39:15.021Z,19.80
2019-01-20T10:41:55.934Z,20.67
2019-01-20T10:44:24.977Z,19.53
2019-01-20T10:47:13.262Z,18.57
2019-01-20T10:50:02.558Z,19.73
2019-01-20T10:52:43.830Z,19.20
2019-01-20T10:55:25.282Z,18.83
2019-01-20T10:58:06.596Z,18.50
2019-01-20T11:03:33.798Z,20.93
2019-01-20T11:06:15.636Z,19.83
2019-01-20T11:09:05.810Z,20.53
2019-01-20T11:12:16.178Z,18.93
2019-01-20T11:21:25.610Z,19.13
2019-01-20T11:24:06.807Z,19.20
2019-01-20T11:26:48.432Z,18.13
2019-01-20T11:29:29.492Z,17.83
2019-01-20T11:32:10.068Z,20.67
2019-01-20T11:34:56.152Z,19.63
2019-01-20T11:37:25.033Z,16.33
2019-01-20T11:40:07.182Z,16.67
2019-01-20T11:42:48.682Z,16.83
2019-01-20T11:45:37.122Z,15.70
2019-01-20T11:48:25.663Z,17.50
2019-01-20T11:51:06.732Z,17.13
2019-01-20T11:53:48.278Z,17.23
2019-01-20T11:59:49.092Z,17.37
2019-01-20T12:02:22.385Z,17.37
2019-01-20T12:08:09.482Z,17.97
2019-01-20T12:10:38.722Z,17.93
2019-01-20T12:16:22.187Z,17.70
2019-01-20T12:19:03.539Z,15.77
2019-01-20T12:21:44.537Z,16.67
2019-01-20T12:24:25.645Z,18.93
2019-01-20T12:27:08.073Z,17.77
2019-01-20T12:29:51.904Z,17.80
2019-01-20T12:32:31.812Z,18.93
2019-01-20T12:35:13.433Z,16.43
2019-01-20T12:37:54.762Z,17.77
2019-01-20T12:40:36.545Z,17.30
2019-01-20T12:43:18.363Z,15.33
2019-01-20T12:45:59.893Z,17.10
2019-01-20T12:48:41.375Z,16.73
2019-01-20T12:51:28.470Z,16.30
2019-01-20T12:54:05.123Z,16.63
2019-01-20T12:56:47.331Z,18.23
2019-01-20T13:02:33.262Z,17.00
2019-01-20T13:05:15.063Z,17.60
2019-01-20T13:07:57.273Z,18.20
2019-01-20T13:10:26.212Z,19.13
2019-01-20T13:13:14.510Z,18.37
2019-01-20T13:15:55.555Z,16.20
2019-01-20T13:18:36.456Z,17.97
2019-01-20T13:21:18.781Z,18.23
2019-01-20T13:23:59.828Z,19.17
2019-01-20T13:26:41.038Z,18.97
2019-01-20T13:29:22.224Z,18.73
2019-01-20T13:32:03.555Z,16.97
2019-01-20T13:34:44.442Z,16.97
2019-01-20T13:37:25.730Z,18.37
2019-01-20T13:42:51.386Z,19.60
2019-01-20T13:45:32.402Z,16.37
2019-01-20T13:48:13.126Z,17.63
2019-01-20T13:50:54.466Z,17.27
2019-01-20T13:53:38.304Z,16.30
2019-01-20T13:56:19.612Z,19.23
2019-01-20T13:59:01.063Z,16.93
2019-01-20T14:01:42.893Z,17.97
2019-01-20T14:04:24.133Z,17.60
2019-01-20T14:09:56.593Z,18.33
2019-01-20T14:12:38.183Z,17.67
2019-01-20T14:17:59.123Z,17.57
2019-01-20T14:20:40.034Z,17.30
2019-01-20T14:23:21.502Z,17.87
2019-01-20T14:29:06.424Z,16.40
2019-01-20T14:31:48.233Z,17.67
2019-01-20T14:37:13.153Z,17.47
2019-01-20T14:39:54.732Z,18.37
2019-01-20T14:42:41.892Z,17.17
2019-01-20T14:45:23.452Z,17.60
2019-01-20T14:48:04.406Z,18.67
2019-01-20T14:50:45.566Z,19.97
2019-01-20T14:53:26.401Z,19.57
2019-01-20T14:56:07.709Z,18.83
2019-01-20T14:58:48.489Z,17.77
2019-01-20T15:04:40.061Z,17.83
2019-01-20T15:07:20.895Z,16.80
2019-01-20T15:12:46.701Z,17.47
2019-01-20T15:15:27.833Z,18.93
2019-01-20T15:18:09.096Z,16.13
2019-01-20T15:20:38.091Z,18.20
2019-01-20T15:23:26.310Z,16.67
2019-01-20T15:26:07.500Z,17.80
2019-01-20T15:28:52.732Z,18.03
2019-01-20T15:34:44.692Z,15.40
2019-01-20T15:37:25.865Z,18.63
2019-01-20T15:40:06.992Z,16.87
2019-01-20T15:42:47.523Z,16.27
2019-01-20T15:45:29.074Z,15.03
2019-01-20T15:47:57.954Z,15.60
2019-01-20T15:51:07.356Z,16.20
2019-01-20T15:57:04.219Z,16.20
2019-01-20T15:59:46.099Z,16.37
2019-01-20T16:02:27.061Z,15.67
2019-01-20T16:08:27.268Z,17.27
2019-01-20T16:11:10.474Z,15.27
2019-01-20T16:13:51.284Z,15.90
2019-01-20T16:16:34.256Z,16.77
2019-01-20T16:19:15.239Z,14.33
2019-01-20T16:21:56.503Z,15.07
2019-01-20T16:24:37.792Z,15.50
2019-01-20T16:27:19.049Z,15.83
2019-01-20T16:30:00.770Z,14.97
2019-01-20T16:32:42.108Z,15.73
2019-01-20T16:35:23.138Z,15.10
2019-01-20T16:38:03.815Z,15.43
2019-01-20T16:43:36.169Z,15.30
2019-01-20T16:46:16.710Z,15.83
2019-01-20T16:48:58.139Z,15.77
2019-01-20T16:51:40.400Z,14.20
2019-01-20T16:54:22.806Z,14.30
2019-01-20T16:57:04.770Z,14.53
2019-01-20T16:59:45.956Z,14.50
2019-01-20T17:02:26.915Z,15.73
2019-01-20T17:05:08.363Z,16.03
2019-01-20T17:07:49.722Z,14.37
2019-01-20T17:10:31.433Z,14.80
2019-01-20T17:19:27.798Z,13.53
2019-01-20T17:22:08.557Z,14.70
2019-01-20T17:31:21.338Z,15.77
2019-01-20T17:34:02.686Z,16.13
2019-01-20T17:37:02.466Z,14.47
2019-01-20T17:39:43.743Z,16.27
2019-01-20T17:42:25.365Z,13.63
2019-01-20T17:45:25.494Z,13.07
2019-01-20T17:48:25.507Z,13.57
2019-01-20T17:51:11.255Z,16.07
2019-01-20T17:59:44.928Z,14.83
2019-01-20T18:02:44.970Z,16.60
2019-01-20T18:05:26.027Z,14.07
2019-01-20T18:11:17.723Z,13.43
2019-01-20T18:17:02.574Z,14.93
2019-01-20T18:19:43.963Z,16.50
2019-01-20T18:22:32.290Z,14.77
2019-01-20T18:25:14.380Z,15.30
2019-01-20T18:27:55.266Z,14.80
2019-01-20T18:30:36.694Z,15.40
2019-01-20T18:33:05.633Z,17.10
2019-01-20T18:35:53.820Z,13.73
2019-01-20T18:38:41.973Z,12.33
2019-01-20T18:41:22.651Z,14.67
2019-01-20T18:44:03.911Z,16.30
2019-01-20T18:46:45.089Z,16.00
2019-01-20T18:49:26.750Z,14.27
2019-01-20T18:52:08.025Z,16.00
2019-01-20T18:54:49.004Z,13.53
2019-01-20T18:57:18.086Z,14.73
2019-01-20T19:00:25.520Z,13.67
2019-01-20T19:03:08.342Z,13.87
2019-01-20T19:05:50.934Z,14.80
2019-01-20T19:08:32.264Z,16.73
2019-01-20T19:14:00.150Z,12.40
2019-01-20T19:16:42.486Z,13.77
2019-01-20T19:19:25.132Z,15.20
2019-01-20T19:22:06.467Z,14.57
2019-01-20T19:25:12.707Z,14.83
2019-01-20T19:27:41.622Z,14.63
2019-01-20T19:30:41.962Z,14.43
2019-01-20T19:33:25.494Z,16.03
2019-01-20T19:36:06.482Z,15.70
2019-01-20T19:38:49.088Z,14.57
2019-01-20T19:41:18.028Z,16.13
2019-01-20T19:44:06.386Z,15.23
2019-01-20T19:46:47.785Z,14.67
2019-01-20T19:49:28.990Z,15.77
2019-01-20T19:51:57.889Z,15.40
2019-01-20T20:01:06.124Z,15.00
2019-01-20T20:03:54.280Z,14.07
2019-01-20T20:06:35.654Z,14.60
2019-01-20T20:15:16.096Z,14.93
2019-01-20T20:17:57.806Z,14.43
2019-01-20T20:20:39.485Z,14.63
2019-01-20T20:23:21.268Z,12.97
2019-01-20T20:26:21.454Z,13.47
2019-01-20T20:29:02.338Z,14.27
2019-01-20T20:31:31.374Z,14.33
2019-01-20T20:38:12.012Z,13.63
2019-01-20T20:41:00.874Z,14.37
2019-01-20T20:43:42.640Z,14.50
2019-01-20T20:46:30.388Z,14.33
2019-01-20T20:52:10.054Z,14.53
2019-01-20T20:54:53.212Z,13.60
2019-01-20T20:57:34.638Z,13.47
2019-01-20T21:00:16.511Z,15.47
2019-01-20T21:02:57.872Z,17.80
2019-01-20T21:05:39.214Z,14.80
2019-01-20T21:11:26.124Z,13.87
2019-01-20T21:14:07.662Z,14.17
2019-01-20T21:16:49.365Z,15.20
2019-01-20T21:19:30.756Z,14.87
2019-01-20T21:22:12.310Z,12.67
2019-01-20T21:24:53.784Z,15.60
2019-01-20T21:27:35.222Z,13.73
2019-01-20T21:30:16.906Z,14.30
2019-01-20T21:32:45.940Z,14.53
2019-01-20T21:35:34.490Z,14.87
2019-01-20T21:44:31.359Z,14.47
2019-01-20T21:47:13.144Z,13.77
2019-01-20T21:49:54.922Z,13.97
2019-01-20T21:52:36.672Z,13.73
2019-01-20T21:55:18.653Z,14.87
2019-01-20T22:01:04.904Z,15.13
2019-01-20T22:03:46.514Z,14.47
2019-01-20T22:06:27.673Z,14.93
2019-01-20T22:09:09.158Z,13.90
2019-01-20T22:11:39.239Z,13.83
2019-01-20T22:14:27.951Z,14.23
2019-01-20T22:17:09.291Z,15.87
2019-01-20T22:19:38.243Z,17.03
2019-01-20T22:22:26.830Z,13.53
2019-01-20T22:25:07.869Z,14.43
2019-01-20T22:27:49.088Z,14.87
2019-01-20T22:30:37.368Z,14.43
2019-01-20T22:33:06.208Z,13.20
2019-01-20T22:35:55.152Z,12.60
2019-01-20T22:38:39.612Z,14.23
2019-01-20T22:41:20.892Z,14.73
2019-01-20T22:44:01.865Z,12.57
2019-01-20T22:46:43.762Z,15.97
2019-01-20T22:49:26.292Z,14.33
2019-01-20T22:58:00.962Z,13.97
2019-01-20T23:00:46.883Z,14.63
2019-01-20T23:03:29.153Z,13.77
2019-01-20T23:05:58.472Z,13.33
2019-01-20T23:08:46.893Z,12.70
2019-01-20T23:11:28.352Z,13.40
2019-01-20T23:14:09.733Z,13.47
2019-01-20T23:16:52.122Z,13.93
2019-01-20T23:19:34.762Z,12.33
2019-01-20T23:22:15.873Z,15.03
2019-01-20T23:28:01.237Z,14.20
2019-01-20T23:33:47.660Z,12.43
2019-01-20T23:36:28.266Z,12.40
2019-01-20T23:39:10.458Z,11.70
2019-01-20T23:41:52.268Z,13.10
2019-01-20T23:44:32.958Z,12.40
2019-01-20T23:47:15.186Z,12.63
2019-01-20T23:49:56.966Z,14.93
2019-01-20T23:52:25.856Z,13.43
2019-01-20T23:55:14.167Z,13.30
